Time;durP1;ratioP1;P1;durP2;ratioP2;P2;SDS_P1;SDS_P2;PMS_P1;PMS_P2;Temp;Humidity;BMP_temperature;BMP_pressure;BME280_temperature;BME280_humidity;BME280_pressure;Samples;Min_cycle;Max_cycle;Signal;HPM_P1;HPM_P2
2021/12/12 00:01:45;;;;;;;13.10;3.30;;;1.50;99.90;;;;;;5080117;28;20091;-82
2021/12/12 00:04:16;;;;;;;16.20;3.55;;;1.50;99.90;;;;;;5054560;28;20044;-80
2021/12/12 00:06:47;;;;;;;7.95;2.17;;;1.60;99.90;;;;;;5054744;28;20380;-85
2021/12/12 00:09:28;;;;;;;14.43;3.50;;;1.50;99.90;;;;;;5072423;28;20076;-78
2021/12/12 00:11:56;;;;;;;10.82;3.20;;;1.50;99.90;;;;;;5054667;28;20052;-79
2021/12/12 00:14:26;;;;;;;14.57;4.57;;;1.50;99.90;;;;;;5054548;28;20036;-77
2021/12/12 00:16:53;;;;;;;22.70;7.15;;;1.60;99.90;;;;;;5082652;28;20032;-79
2021/12/12 00:19:21;;;;;;;13.27;2.85;;;2.60;99.90;;;;;;5089886;28;20100;-77
2021/12/12 00:21:51;;;;;;;14.25;3.15;;;1.90;99.90;;;;;;5096537;28;20047;-76
2021/12/12 00:24:17;;;;;;;13.65;3.20;;;1.60;99.90;;;;;;5090414;28;20483;-76
2021/12/12 00:26:45;;;;;;;13.10;3.45;;;1.50;99.90;;;;;;5058068;28;20047;-76
2021/12/12 00:29:13;;;;;;;8.00;2.92;;;1.40;99.90;;;;;;5076108;28;20064;-76
2021/12/12 00:31:39;;;;;;;16.33;4.80;;;1.30;99.90;;;;;;5076168;28;20054;-76
2021/12/12 00:34:06;;;;;;;10.38;3.38;;;1.90;99.90;;;;;;5076290;28;20139;-75
2021/12/12 00:36:33;;;;;;;10.82;3.25;;;1.40;99.90;;;;;;5076295;28;20044;-75
2021/12/12 00:39:05;;;;;;;12.63;3.72;;;1.30;99.90;;;;;;5078622;28;20177;-77
2021/12/12 00:41:34;;;;;;;10.50;3.22;;;;;;;;;;5084730;28;20458;-76
2021/12/12 00:44:01;;;;;;;11.00;2.80;;;1.20;99.90;;;;;;5074765;28;20075;-76
2021/12/12 00:46:27;;;;;;;12.60;3.17;;;1.10;99.90;;;;;;5058160;28;20399;-76
2021/12/12 00:48:54;;;;;;;13.68;3.13;;;1.20;99.90;;;;;;5083248;28;20051;-76
2021/12/12 00:51:27;;;;;;;13.85;2.97;;;1.20;99.90;;;;;;5075951;28;20047;-75
2021/12/12 00:53:54;;;;;;;14.05;2.97;;;1.00;99.90;;;;;;5075557;28;20033;-75
2021/12/12 00:56:20;;;;;;;13.93;3.40;;;1.00;99.90;;;;;;5075363;28;20040;-76
2021/12/12 00:58:46;;;;;;;8.48;2.70;;;1.00;99.90;;;;;;5057841;28;20408;-75
2021/12/12 01:01:21;;;;;;;9.13;2.30;;;1.10;99.90;;;;;;5075798;28;20473;-75
2021/12/12 01:04:00;;;;;;;22.33;3.40;;;1.10;99.90;;;;;;5075465;28;20040;-75
2021/12/12 01:06:27;;;;;;;13.13;3.10;;;1.00;99.90;;;;;;5068875;28;20039;-75
2021/12/12 01:08:56;;;;;;;9.40;2.67;;;0.90;99.90;;;;;;5075103;28;20087;-75
2021/12/12 01:11:32;;;;;;;10.88;2.25;;;0.80;99.90;;;;;;5057345;28;20036;-75
2021/12/12 01:13:59;;;;;;;14.60;2.83;;;0.90;99.90;;;;;;5058333;28;20043;-75
2021/12/12 01:16:30;;;;;;;11.05;3.10;;;0.70;99.90;;;;;;5095274;28;20036;-76
2021/12/12 01:19:05;;;;;;;14.73;3.25;;;0.70;99.90;;;;;;5095288;28;20085;-76
2021/12/12 01:21:37;;;;;;;16.02;4.78;;;0.60;99.90;;;;;;5075759;28;20063;-76
2021/12/12 01:24:10;;;;;;;14.35;3.05;;;1.10;99.90;;;;;;5057220;28;20041;-75
2021/12/12 01:26:38;;;;;;;12.40;2.95;;;0.90;99.90;;;;;;5074709;28;20036;-75
2021/12/12 01:29:05;;;;;;;9.80;3.13;;;0.90;99.90;;;;;;5073974;28;20556;-76
2021/12/12 01:31:33;;;;;;;23.35;8.50;;;0.80;99.90;;;;;;5074537;28;20028;-75
2021/12/12 01:34:10;;;;;;;27.85;9.00;;;3.00;99.90;;;;;;5075034;28;20047;-76
2021/12/12 01:37:05;;;;;;;14.32;3.60;;;3.00;99.90;;;;;;5055827;28;20037;-77
2021/12/12 01:39:38;;;;;;;17.58;3.88;;;1.80;99.90;;;;;;5055869;28;20052;-78
2021/12/12 01:42:14;;;;;;;15.10;3.55;;;1.10;99.90;;;;;;5074654;28;20178;-78
2021/12/12 01:45:03;;;;;;;12.32;3.15;;;0.90;99.90;;;;;;5075055;28;20040;-78
2021/12/12 01:47:58;;;;;;;11.18;3.28;;;0.70;99.90;;;;;;5056771;28;20037;-78
2021/12/12 01:50:35;;;;;;;18.23;3.15;;;0.50;99.90;;;;;;5074136;28;20055;-81
2021/12/12 01:53:05;;;;;;;11.82;3.22;;;0.60;99.90;;;;;;5074783;28;20036;-78
2021/12/12 01:55:42;;;;;;;13.10;2.80;;;0.50;99.90;;;;;;5074779;28;20534;-77
2021/12/12 01:58:12;;;;;;;15.30;3.30;;;0.40;99.90;;;;;;5054836;28;20032;-77
2021/12/12 02:00:45;;;;;;;20.05;4.32;;;0.40;99.90;;;;;;5074054;28;20037;-78
2021/12/12 02:03:14;;;;;;;14.38;3.20;;;0.50;99.90;;;;;;5053936;28;20127;-77
2021/12/12 02:05:40;;;;;;;12.30;3.30;;;0.50;99.90;;;;;;5074669;28;20039;-78
2021/12/12 02:08:10;;;;;;;18.63;4.18;;;0.60;99.90;;;;;;5074467;28;20051;-80
2021/12/12 02:10:40;;;;;;;13.93;3.35;;;0.80;99.90;;;;;;5074450;28;20028;-78
2021/12/12 02:13:10;;;;;;;20.08;3.50;;;0.70;99.90;;;;;;5074451;28;20385;-78
2021/12/12 02:15:37;;;;;;;11.60;3.05;;;0.70;99.90;;;;;;5074768;28;20032;-78
2021/12/12 02:18:11;;;;;;;9.77;2.60;;;0.70;99.90;;;;;;5084708;28;20434;-78
2021/12/12 02:20:46;;;;;;;13.43;3.00;;;0.60;99.90;;;;;;5094421;28;20517;-78
2021/12/12 02:23:30;;;;;;;11.77;2.85;;;0.60;99.90;;;;;;5093139;28;20036;-80
2021/12/12 02:37:00;;;;;;;15.02;3.05;;;0.60;99.90;;;;;;5094283;28;20526;-79
2021/12/12 02:39:26;;;;;;;16.58;3.33;;;0.60;99.90;;;;;;5092433;28;20043;-79
2021/12/12 02:41:56;;;;;;;8.20;2.47;;;0.60;99.90;;;;;;5091115;28;20048;-79
2021/12/12 02:44:28;;;;;;;11.73;2.90;;;0.60;99.90;;;;;;5079867;28;20074;-79
2021/12/12 02:46:57;;;;;;;13.43;3.17;;;0.70;99.90;;;;;;5071529;28;20043;-79
2021/12/12 02:49:38;;;;;;;15.30;3.30;;;0.80;99.90;;;;;;5072655;28;20044;-81
2021/12/12 02:52:09;;;;;;;;;;;0.80;99.90;;;;;;5074245;28;20546;-79
2021/12/12 02:54:35;;;;;;;12.60;3.22;;;0.70;99.90;;;;;;5055816;28;20024;-79
2021/12/12 02:57:02;;;;;;;10.50;3.40;;;0.70;99.90;;;;;;5073673;28;20049;-76
2021/12/12 02:59:28;;;;;;;16.75;3.70;;;0.70;99.90;;;;;;5082664;28;20036;-78
2021/12/12 03:02:02;;;;;;;14.30;3.35;;;0.70;99.90;;;;;;5073564;28;20041;-75
2021/12/12 03:04:29;;;;;;;11.32;3.00;;;0.50;99.90;;;;;;5055372;28;20037;-75
2021/12/12 03:06:56;;;;;;;14.73;3.63;;;0.40;99.90;;;;;;5073043;28;20200;-75
2021/12/12 03:09:27;;;;;;;10.95;3.50;;;0.30;99.90;;;;;;5093065;28;20074;-75
2021/12/12 03:11:59;;;;;;;13.45;3.70;;;0.20;99.90;;;;;;5093633;28;20111;-75
2021/12/12 03:14:32;;;;;;;17.35;3.20;;;0.10;99.90;;;;;;5093530;28;20071;-76
2021/12/12 03:17:06;;;;;;;14.30;3.35;;;0.20;99.90;;;;;;5093613;28;20039;-75
2021/12/12 03:19:33;;;;;;;12.27;3.22;;;0.30;99.90;;;;;;5093610;28;20080;-75
2021/12/12 03:21:59;;;;;;;16.00;3.20;;;0.40;99.90;;;;;;5093475;28;20036;-75
2021/12/12 03:24:27;;;;;;;15.98;2.90;;;0.50;99.90;;;;;;5091670;28;20028;-75
2021/12/12 03:26:57;;;;;;;12.45;3.63;;;0.50;99.90;;;;;;5091746;28;20395;-75
2021/12/12 03:29:25;;;;;;;13.90;3.92;;;0.70;99.90;;;;;;5093145;28;20089;-75
2021/12/12 03:31:59;;;;;;;16.02;3.67;;;0.60;99.90;;;;;;5093208;28;20605;-75
2021/12/12 03:34:29;;;;;;;13.75;3.47;;;0.50;99.90;;;;;;5093063;28;20036;-75
2021/12/12 03:36:55;;;;;;;10.70;2.95;;;0.50;99.90;;;;;;5093107;28;20036;-75
2021/12/12 03:39:29;;;;;;;11.77;2.83;;;0.20;99.90;;;;;;5075377;28;20043;-75
2021/12/12 03:41:58;;;;;;;10.05;3.50;;;0.40;99.90;;;;;;5073019;28;20036;-74
2021/12/12 03:44:29;;;;;;;15.98;3.13;;;0.60;99.90;;;;;;5073167;28;20040;-74
2021/12/12 03:46:59;;;;;;;11.07;2.67;;;0.60;99.90;;;;;;5055009;28;20487;-75
2021/12/12 03:49:26;;;;;;;10.93;2.60;;;0.40;99.90;;;;;;5054385;28;20135;-75
2021/12/12 03:51:53;;;;;;;15.02;3.20;;;0.40;99.90;;;;;;5071968;28;20041;-75
2021/12/12 03:54:19;;;;;;;13.40;2.60;;;0.40;99.90;;;;;;5072965;28;20040;-75
2021/12/12 03:56:45;;;;;;;13.57;2.50;;;0.40;99.90;;;;;;5072806;28;20090;-75
2021/12/12 03:59:12;;;;;;;12.73;2.70;;;0.30;99.90;;;;;;5072838;28;20101;-75
2021/12/12 04:01:45;;;;;;;15.68;3.10;;;0.20;99.90;;;;;;5072723;28;20491;-75
2021/12/12 04:04:19;;;;;;;13.55;2.80;;;0.20;99.90;;;;;;5071619;28;20040;-77
2021/12/12 04:06:46;;;;;;;11.13;3.00;;;0.30;99.90;;;;;;5072901;28;20127;-75
2021/12/12 04:09:13;;;;;;;12.10;2.25;;;0.40;99.90;;;;;;5074049;28;20060;-75
2021/12/12 04:11:45;;;;;;;9.63;2.50;;;0.40;99.90;;;;;;5093000;28;20075;-75
2021/12/12 04:14:11;;;;;;;11.18;2.60;;;0.70;99.90;;;;;;5092767;28;20036;-75
2021/12/12 04:16:40;;;;;;;14.50;3.63;;;0.80;99.90;;;;;;5092717;28;20036;-75
2021/12/12 04:19:07;;;;;;;12.32;2.90;;;0.90;99.90;;;;;;5092489;28;20040;-75
2021/12/12 04:21:34;;;;;;;10.30;3.10;;;0.20;99.90;;;;;;5092441;28;20072;-75
2021/12/12 04:24:00;;;;;;;16.02;3.40;;;0.00;99.90;;;;;;5092721;28;20518;-75
2021/12/12 04:26:36;;;;;;;16.02;3.05;;;-0.10;99.90;;;;;;5074620;28;20069;-75
2021/12/12 04:29:01;;;;;;;15.38;4.63;;;-0.10;99.90;;;;;;5092560;28;20051;-75
2021/12/12 04:31:28;;;;;;;11.55;3.97;;;0.00;99.90;;;;;;5092490;28;20135;-75
2021/12/12 04:33:54;;;;;;;13.52;3.95;;;0.10;99.90;;;;;;5092384;28;20040;-75
2021/12/12 04:36:33;;;;;;;12.85;3.20;;;0.10;99.90;;;;;;5074401;28;20062;-77
2021/12/12 04:39:05;;;;;;;10.93;3.03;;;0.20;99.90;;;;;;5092566;28;20055;-75
2021/12/12 04:41:31;;;;;;;19.88;3.40;;;-0.10;99.90;;;;;;5092731;28;20551;-75
2021/12/12 04:43:56;;;;;;;14.00;3.63;;;-0.20;99.90;;;;;;5074068;28;20135;-75
2021/12/12 04:46:36;;;;;;;13.52;4.05;;;-0.20;99.90;;;;;;5073509;28;20041;-75
2021/12/12 04:51:52;;;;;;;14.48;3.63;;;-0.40;99.90;;;;;;5091799;28;20027;-75
2021/12/12 04:54:51;;;;;;;13.32;4.03;;;-0.20;99.90;;;;;;5092575;28;20102;-75
2021/12/12 04:57:39;;;;;;;12.85;3.72;;;-0.10;99.90;;;;;;5040762;28;20051;-75
2021/12/12 05:00:19;;;;;;;17.13;3.30;;;0.10;99.90;;;;;;5092198;28;20046;-75
2021/12/12 05:02:57;;;;;;;12.10;2.70;;;0.20;99.90;;;;;;5093368;28;20115;-75
2021/12/12 05:05:30;;;;;;;19.23;3.78;;;0.30;99.90;;;;;;5077611;28;20358;-75
2021/12/12 05:08:14;;;;;;;9.93;2.53;;;0.30;99.90;;;;;;5095184;28;20525;-74
2021/12/12 05:11:07;;;;;;;11.52;2.80;;;0.10;99.90;;;;;;5095718;28;20044;-75
2021/12/12 05:13:36;;;;;;;13.40;2.50;;;0.10;99.90;;;;;;5095044;28;20047;-75
2021/12/12 05:16:12;;;;;;;17.40;3.17;;;0.40;99.90;;;;;;5077164;28;20036;-74
2021/12/12 05:18:50;;;;;;;12.82;3.10;;;0.10;99.90;;;;;;5077383;28;20116;-75
2021/12/12 05:21:23;;;;;;;14.60;3.17;;;0.00;99.90;;;;;;5095687;28;20130;-75
2021/12/12 05:23:51;;;;;;;11.35;2.55;;;0.00;99.90;;;;;;5077552;28;20039;-74
2021/12/12 05:26:26;;;;;;;10.63;3.00;;;0.10;99.90;;;;;;5077371;28;20044;-75
2021/12/12 05:29:19;;;;;;;13.68;2.45;;;0.30;99.90;;;;;;5095449;28;20054;-74
2021/12/12 05:31:51;;;;;;;8.43;2.58;;;0.30;99.90;;;;;;5095401;28;20040;-74
2021/12/12 05:34:18;;;;;;;11.73;3.08;;;0.40;99.90;;;;;;5095461;28;20055;-75
2021/12/12 05:36:46;;;;;;;16.45;3.25;;;0.50;99.90;;;;;;5077120;28;20079;-75
2021/12/12 05:39:12;;;;;;;9.07;2.45;;;0.60;99.90;;;;;;5095447;28;20062;-75
2021/12/12 05:41:39;;;;;;;8.63;2.38;;;0.70;99.90;;;;;;5095285;28;20052;-75
2021/12/12 05:44:05;;;;;;;9.30;3.25;;;0.90;99.90;;;;;;5077069;28;20053;-74
2021/12/12 05:46:31;;;;;;;13.07;2.90;;;0.90;99.90;;;;;;5095102;28;20449;-75
2021/12/12 05:49:00;;;;;;;12.77;2.25;;;0.80;99.90;;;;;;5076738;28;20652;-75
2021/12/12 05:51:27;;;;;;;11.50;2.83;;;0.80;99.90;;;;;;5094980;28;20055;-75
2021/12/12 05:53:54;;;;;;;8.40;2.35;;;0.70;99.90;;;;;;5076643;28;20395;-75
2021/12/12 05:56:23;;;;;;;16.38;2.95;;;0.70;99.90;;;;;;5095087;28;20050;-75
2021/12/12 05:58:49;;;;;;;11.80;2.75;;;0.70;99.90;;;;;;5095043;28;20510;-75
2021/12/12 06:01:16;;;;;;;6.93;2.15;;;0.90;99.90;;;;;;5094985;28;20142;-75
2021/12/12 06:03:45;;;;;;;13.73;3.75;;;0.90;99.90;;;;;;5076707;28;20104;-75
2021/12/12 06:06:14;;;;;;;11.73;4.22;;;0.60;99.90;;;;;;5094139;28;20040;-75
2021/12/12 06:08:42;;;;;;;11.80;3.72;;;0.40;99.90;;;;;;5076264;28;20044;-76
2021/12/12 06:11:08;;;;;;;16.27;4.53;;;0.40;99.90;;;;;;5076184;28;20499;-75
2021/12/12 06:13:37;;;;;;;11.45;3.47;;;0.40;99.90;;;;;;5093968;28;20035;-74
2021/12/12 06:16:04;;;;;;;17.83;3.80;;;0.40;99.90;;;;;;5076030;28;20035;-74
2021/12/12 06:18:32;;;;;;;14.95;3.78;;;0.30;99.90;;;;;;5094455;28;20036;-75
2021/12/12 06:20:58;;;;;;;11.55;2.90;;;0.50;99.90;;;;;;5076423;28;20071;-74
2021/12/12 06:23:25;;;;;;;23.17;3.88;;;0.60;99.90;;;;;;5094513;28;20054;-75
2021/12/12 06:25:51;;;;;;;8.05;2.75;;;0.60;99.90;;;;;;5094413;28;20073;-75
2021/12/12 06:28:24;;;;;;;9.23;2.50;;;0.60;99.90;;;;;;5076244;28;20040;-74
2021/12/12 06:30:50;;;;;;;16.25;2.97;;;0.70;99.90;;;;;;5076094;28;20057;-75
2021/12/12 06:33:16;;;;;;;18.33;3.40;;;0.70;99.90;;;;;;5094318;28;20546;-75
2021/12/12 06:35:42;;;;;;;14.57;3.80;;;0.60;99.90;;;;;;5094056;28;20056;-74
2021/12/12 06:38:12;;;;;;;14.00;2.75;;;0.60;99.90;;;;;;5075967;28;20036;-75
2021/12/12 06:40:39;;;;;;;9.55;2.40;;;0.60;99.90;;;;;;5094161;28;20035;-74
2021/12/12 06:43:10;;;;;;;13.45;3.90;;;0.50;99.90;;;;;;5094129;28;20038;-74
2021/12/12 06:45:37;;;;;;;11.57;2.92;;;0.50;99.90;;;;;;5094115;28;20119;-75
2021/12/12 06:48:05;;;;;;;19.58;5.82;;;0.50;99.90;;;;;;5069677;28;20075;-75
2021/12/12 06:50:33;;;;;;;23.27;7.75;;;0.10;99.90;;;;;;5071905;28;20131;-74
2021/12/12 06:53:00;;;;;;;20.40;7.50;;;-0.20;99.90;;;;;;5072211;28;20560;-75
2021/12/12 06:55:26;;;;;;;17.95;6.40;;;-0.20;99.90;;;;;;5073471;28;20040;-75
2021/12/12 06:57:52;;;;;;;12.48;4.18;;;-0.10;99.90;;;;;;5055505;28;20039;-75
2021/12/12 07:00:21;;;;;;;13.88;3.70;;;0.00;99.90;;;;;;5055449;28;20159;-75
2021/12/12 07:02:47;;;;;;;11.18;3.22;;;0.10;99.90;;;;;;5071993;28;20035;-74
2021/12/12 07:05:19;;;;;;;9.30;2.83;;;0.10;99.90;;;;;;5055511;28;20036;-75
2021/12/12 07:07:46;;;;;;;9.10;2.53;;;0.30;99.90;;;;;;5073448;28;20040;-74
2021/12/12 07:10:15;;;;;;;11.90;3.88;;;0.40;99.90;;;;;;5073455;28;20048;-74
2021/12/12 07:12:42;;;;;;;10.02;2.50;;;0.40;99.90;;;;;;5073464;28;20036;-75
2021/12/12 07:15:14;;;;;;;13.50;3.80;;;0.50;99.90;;;;;;5073308;28;20051;-75
2021/12/12 07:17:41;;;;;;;12.20;2.70;;;0.60;99.90;;;;;;5081334;28;20085;-74
2021/12/12 07:20:09;;;;;;;10.30;2.38;;;0.60;99.90;;;;;;5075131;28;20481;-78
2021/12/12 07:22:36;;;;;;;9.02;2.35;;;0.70;99.90;;;;;;5093365;28;20068;-74
2021/12/12 07:25:05;;;;;;;12.73;2.38;;;0.80;99.90;;;;;;5063783;28;20036;-74
2021/12/12 07:27:31;;;;;;;9.32;2.40;;;0.80;99.90;;;;;;5087736;28;20041;-74
2021/12/12 07:29:57;;;;;;;14.80;2.85;;;0.90;99.90;;;;;;5072978;28;20035;-74
2021/12/12 07:32:24;;;;;;;10.23;2.47;;;0.90;99.90;;;;;;5087325;28;20668;-74
2021/12/12 07:34:50;;;;;;;37.95;19.63;;;0.80;99.90;;;;;;5074960;28;20059;-75
2021/12/12 07:37:20;;;;;;;15.65;4.65;;;0.80;99.90;;;;;;5092698;28;20097;-76
2021/12/12 07:39:46;;;;;;;17.30;3.30;;;0.80;99.90;;;;;;5093106;28;20521;-75
2021/12/12 07:42:14;;;;;;;7.82;2.63;;;;;;;;;;5093115;28;20558;-82
2021/12/12 07:44:40;;;;;;;11.30;2.38;;;1.30;99.90;;;;;;5074947;28;20131;-76
2021/12/12 07:47:09;;;;;;;15.18;2.75;;;1.10;99.90;;;;;;5093217;28;20036;-76
2021/12/12 07:49:39;;;;;;;12.68;3.10;;;1.20;99.90;;;;;;5092945;28;20494;-78
2021/12/12 07:52:08;;;;;;;11.18;3.58;;;1.40;99.90;;;;;;5092724;28;20518;-82
2021/12/12 07:54:35;;;;;;;10.25;3.20;;;1.30;99.90;;;;;;5092764;28;20411;-79
2021/12/12 07:57:02;;;;;;;12.95;3.55;;;1.30;99.90;;;;;;5074460;28;20491;-79
2021/12/12 07:59:28;;;;;;;17.42;7.93;;;1.60;99.90;;;;;;5092613;28;20071;-79
2021/12/12 08:01:54;;;;;;;12.77;6.60;;;1.70;99.90;;;;;;5093065;28;20043;-78
2021/12/12 08:04:25;;;;;;;30.48;17.33;;;1.70;99.90;;;;;;5093089;28;20024;-79
2021/12/12 08:06:51;;;;;;;32.20;16.88;;;1.60;99.90;;;;;;5108457;28;20043;-79
2021/12/12 08:09:18;;;;;;;32.17;15.45;;;1.70;99.90;;;;;;5074625;28;20416;-79
2021/12/12 08:11:45;;;;;;;25.25;12.02;;;1.70;99.90;;;;;;5092592;28;20050;-79
2021/12/12 08:14:19;;;;;;;18.15;6.78;;;1.90;99.90;;;;;;5092947;28;20036;-81
2021/12/12 08:16:46;;;;;;;12.88;6.28;;;2.10;99.90;;;;;;5074806;28;20090;-76
2021/12/12 08:19:12;;;;;;;16.70;6.28;;;2.00;99.90;;;;;;5092606;28;20028;-75
2021/12/12 08:21:39;;;;;;;13.77;4.95;;;1.90;99.90;;;;;;5074651;28;20034;-75
2021/12/12 08:24:08;;;;;;;11.48;2.90;;;2.00;99.90;;;;;;5092818;28;20063;-76
2021/12/12 08:26:36;;;;;;;13.77;3.28;;;1.90;99.90;;;;;;5092725;28;20538;-75
2021/12/12 08:29:05;;;;;;;8.90;2.85;;;1.80;99.90;;;;;;5092839;28;20043;-75
2021/12/12 08:31:31;;;;;;;9.90;2.78;;;1.60;99.90;;;;;;5092886;28;20047;-74
2021/12/12 08:33:57;;;;;;;8.93;3.13;;;1.50;99.90;;;;;;5092650;28;20097;-74
2021/12/12 08:36:23;;;;;;;12.45;4.03;;;1.60;99.90;;;;;;5093002;28;20403;-74
2021/12/12 08:38:50;;;;;;;13.23;4.60;;;1.60;99.90;;;;;;5094969;28;20036;-73
2021/12/12 08:41:17;;;;;;;15.00;5.75;;;1.60;99.90;;;;;;5096632;28;20040;-73
2021/12/12 08:43:43;;;;;;;16.85;7.45;;;1.60;99.90;;;;;;5078293;28;20036;-73
2021/12/12 08:46:13;;;;;;;20.60;7.35;;;1.60;99.90;;;;;;5108393;28;20401;-80
2021/12/12 08:48:46;;;;;;;10.00;5.68;;;1.70;99.90;;;;;;5109839;28;20111;-72
2021/12/12 08:51:22;;;;;;;14.05;5.18;;;1.70;99.90;;;;;;5116426;28;20043;-73
2021/12/12 08:53:51;;;;;;;16.88;5.47;;;1.60;99.90;;;;;;5109104;28;20042;-72
2021/12/12 08:56:41;;;;;;;17.13;5.63;;;1.60;99.90;;;;;;5106871;28;20502;-79
2021/12/12 08:59:09;;;;;;;21.58;5.13;;;1.60;99.90;;;;;;5094725;28;20043;-72
2021/12/12 09:01:39;;;;;;;14.40;4.13;;;2.00;99.90;;;;;;5081828;28;20055;-71
2021/12/12 09:04:07;;;;;;;18.17;4.38;;;1.80;99.90;;;;;;5098950;28;20070;-71
2021/12/12 09:06:41;;;;;;;14.90;5.10;;;1.90;99.90;;;;;;5073784;28;20040;-71
2021/12/12 09:09:14;;;;;;;11.25;4.38;;;1.90;99.90;;;;;;5101705;28;20055;-71
2021/12/12 09:11:44;;;;;;;13.27;4.70;;;1.90;99.90;;;;;;5095625;28;20076;-72
2021/12/12 09:14:34;;;;;;;13.27;4.80;;;2.10;99.90;;;;;;5092708;28;20076;-74
2021/12/12 09:17:05;;;;;;;12.88;4.88;;;2.20;99.90;;;;;;5092818;28;20032;-74
2021/12/12 09:19:45;;;;;;;13.93;5.45;;;2.50;99.90;;;;;;5094507;28;20046;-73
2021/12/12 09:22:30;;;;;;;16.63;5.07;;;2.80;99.90;;;;;;5095183;28;20059;-77
2021/12/12 09:25:24;;;;;;;22.48;6.28;;;3.30;99.90;;;;;;5093293;28;20047;-76
2021/12/12 09:28:01;;;;;;;20.45;10.57;;;3.80;99.90;;;;;;5075905;28;20068;-74
2021/12/12 09:30:28;;;;;;;20.92;12.85;;;4.30;99.90;;;;;;5092338;28;20035;-75
2021/12/12 09:33:20;;;;;;;26.13;12.70;;;;;;;;;;5092838;28;20044;-75
2021/12/12 09:36:13;;;;;;;23.40;13.57;;;4.70;99.90;;;;;;5063973;28;20360;-73
2021/12/12 09:38:51;;;;;;;22.13;12.55;;;4.80;99.90;;;;;;5091899;28;20441;-75
2021/12/12 09:41:26;;;;;;;20.15;8.55;;;4.90;99.90;;;;;;5092185;28;20028;-74
2021/12/12 09:44:18;;;;;;;15.32;7.50;;;5.10;99.90;;;;;;5075565;28;21219;-74
2021/12/12 09:47:00;;;;;;;19.17;9.57;;;5.20;99.90;;;;;;5093880;28;20089;-75
2021/12/12 09:52:56;;;;;;;29.90;17.13;;;5.20;99.90;;;;;;5090604;28;20051;-76
2021/12/12 09:56:06;;;;;;;24.70;11.05;;;5.50;99.90;;;;;;5091688;28;20071;-76
2021/12/12 09:58:59;;;;;;;16.88;7.90;;;5.50;99.90;;;;;;5088212;28;20067;-79
2021/12/12 10:01:33;;;;;;;27.67;12.15;;;5.80;99.90;;;;;;5094027;28;20043;-77
2021/12/12 10:04:27;;;;;;;50.20;30.63;;;5.60;99.90;;;;;;5092633;28;20514;-79
2021/12/12 10:06:56;;;;;;;11.70;5.65;;;5.70;99.90;;;;;;5075598;28;20039;-75
2021/12/12 10:09:40;;;;;;;24.67;11.60;;;5.60;99.90;;;;;;5087130;28;20043;-75
2021/12/12 10:12:16;;;;;;;20.10;11.52;;;5.60;99.90;;;;;;5079271;28;20039;-76
2021/12/12 10:15:04;;;;;;;28.88;13.38;;;;;;;;;;5092915;28;20595;-76
2021/12/12 10:17:53;;;;;;;31.45;18.77;;;;;;;;;;5058873;28;20492;-75
2021/12/12 10:20:25;;;;;;;23.52;11.27;;;6.60;99.90;;;;;;5072460;28;20095;-75
2021/12/12 10:23:23;;;;;;;23.52;13.27;;;6.50;99.90;;;;;;5080091;28;20092;-76
2021/12/12 10:25:54;;;;;;;15.73;7.05;;;6.50;99.90;;;;;;5084872;28;20079;-76
2021/12/12 10:28:35;;;;;;;23.02;13.35;;;6.50;99.90;;;;;;5092706;28;20529;-76
2021/12/12 10:31:27;;;;;;;23.40;12.00;;;6.60;99.90;;;;;;5092310;28;20028;-76
2021/12/12 10:34:01;;;;;;;12.20;6.07;;;6.40;99.90;;;;;;5085974;28;20143;-76
2021/12/12 10:36:47;;;;;;;19.33;10.75;;;6.40;99.90;;;;;;5092670;28;20039;-76
2021/12/12 10:39:20;;;;;;;22.30;9.43;;;6.30;99.90;;;;;;5102321;28;20037;-75
2021/12/12 10:42:15;;;;;;;12.68;6.05;;;6.60;99.90;;;;;;5071812;28;20036;-73
2021/12/12 10:44:49;;;;;;;14.65;5.55;;;6.60;99.90;;;;;;5071665;28;20491;-74
2021/12/12 10:47:22;;;;;;;11.57;4.80;;;6.40;99.90;;;;;;5071368;28;20040;-74
2021/12/12 10:50:10;;;;;;;16.90;7.80;;;6.50;99.90;;;;;;5071889;28;20040;-73
2021/12/12 10:53:00;;;;;;;12.98;5.50;;;6.80;99.90;;;;;;5069824;28;20036;-74
2021/12/12 10:56:04;;;;;;;13.80;7.07;;;6.90;99.90;;;;;;5071642;28;20097;-74
2021/12/12 10:58:47;;;;;;;18.55;8.65;;;7.00;99.90;;;;;;5029352;28;20418;-73
2021/12/12 11:01:16;;;;;;;28.27;11.32;;;6.70;99.90;;;;;;5071186;28;20376;-75
2021/12/12 11:04:06;;;;;;;18.63;7.10;;;6.70;99.90;;;;;;5071167;28;20040;-73
2021/12/12 11:06:39;;;;;;;14.68;6.72;;;6.40;99.90;;;;;;5076248;28;20036;-77
2021/12/12 11:09:14;;;;;;;69.93;27.35;;;6.30;99.90;;;;;;5081066;28;20040;-72
2021/12/12 11:11:44;;;;;;;62.45;32.35;;;6.50;99.90;;;;;;5070705;28;20036;-74
2021/12/12 11:14:27;;;;;;;25.13;12.40;;;6.50;99.90;;;;;;5068988;28;20511;-74
2021/12/12 11:16:59;;;;;;;27.45;14.27;;;6.40;99.90;;;;;;5068941;28;20461;-73
2021/12/12 11:19:46;;;;;;;22.95;11.63;;;6.40;99.90;;;;;;5070526;28;20040;-71
2021/12/12 11:22:41;;;;;;;27.00;9.25;;;6.50;99.90;;;;;;5069154;28;20040;-73
2021/12/12 11:25:10;;;;;;;26.52;11.32;;;6.40;99.90;;;;;;5079919;28;20872;-74
2021/12/12 11:27:45;;;;;;;16.08;7.38;;;6.80;99.90;;;;;;5072092;28;20101;-73
2021/12/12 11:30:46;;;;;;;14.07;7.22;;;6.90;99.90;;;;;;5069000;28;20106;-76
2021/12/12 11:33:16;;;;;;;17.30;7.18;;;6.90;99.90;;;;;;5055913;28;20032;-76
2021/12/12 11:35:46;;;;;;;18.65;9.98;;;7.20;99.90;;;;;;5070313;28;20036;-77
2021/12/12 11:38:35;;;;;;;20.92;10.27;;;7.10;99.90;;;;;;5068339;28;20121;-77
2021/12/12 11:41:20;;;;;;;31.48;16.15;;;7.20;99.90;;;;;;5066762;28;20399;-77
2021/12/12 11:44:01;;;;;;;22.13;9.82;;;7.30;99.90;;;;;;5069922;28;20036;-75
2021/12/12 11:46:35;;;;;;;18.75;7.25;;;7.30;99.90;;;;;;5070450;28;20125;-76
2021/12/12 11:49:22;;;;;;;33.33;16.73;;;7.40;99.90;;;;;;5091600;28;20059;-76
2021/12/12 11:52:02;;;;;;;26.33;12.13;;;7.60;99.90;;;;;;5090914;28;20063;-76
2021/12/12 11:55:09;;;;;;;21.67;9.23;;;7.70;99.90;;;;;;5090203;28;20044;-72
2021/12/12 11:57:53;;;;;;;14.73;6.50;;;7.70;99.90;;;;;;5021954;28;20041;-73
2021/12/12 12:00:25;;;;;;;31.98;12.93;;;7.70;99.90;;;;;;5064937;28;20055;-71
2021/12/12 12:03:13;;;;;;;21.30;8.60;;;7.80;99.90;;;;;;5054274;28;20470;-76
2021/12/12 12:05:47;;;;;;;16.83;5.70;;;8.00;99.90;;;;;;5068098;28;20460;-75
2021/12/12 12:08:24;;;;;;;13.13;5.32;;;8.00;99.90;;;;;;5069128;28;20054;-74
2021/12/12 12:11:24;;;;;;;15.45;5.60;;;8.10;99.90;;;;;;5069069;28;20032;-73
2021/12/12 12:14:18;;;;;;;13.55;5.05;;;8.10;99.90;;;;;;5054864;28;20040;-74
2021/12/12 12:16:49;;;;;;;13.55;4.80;;;8.00;99.90;;;;;;5074135;28;20076;-74
2021/12/12 12:19:32;;;;;;;11.65;3.83;;;7.80;99.90;;;;;;5072430;28;20099;-75
2021/12/12 12:22:13;;;;;;;14.77;6.45;;;7.80;99.90;;;;;;5071717;28;20032;-71
2021/12/12 12:24:59;;;;;;;14.30;5.65;;;7.60;99.90;;;;;;5074189;28;20572;-71
2021/12/12 12:27:40;;;;;;;14.55;4.13;;;7.50;99.90;;;;;;5072985;28;20507;-72
2021/12/12 12:30:31;;;;;;;18.63;4.70;;;7.60;99.90;;;;;;5070456;28;20048;-71
2021/12/12 12:33:25;;;;;;;15.85;5.45;;;7.70;99.90;;;;;;5074077;28;20434;-72
2021/12/12 12:36:28;;;;;;;12.98;4.65;;;7.80;99.90;;;;;;5072356;28;20041;-72
2021/12/12 12:39:24;;;;;;;52.75;36.70;;;7.70;99.90;;;;;;5073952;28;20521;-73
2021/12/12 12:42:21;;;;;;;20.00;10.60;;;7.30;99.90;;;;;;5074657;28;20549;-72
2021/12/12 12:45:24;;;;;;;24.15;8.07;;;7.60;99.90;;;;;;5073832;28;20150;-72
2021/12/12 12:48:05;;;;;;;19.23;8.50;;;7.60;99.90;;;;;;5073965;28;20037;-73
2021/12/12 12:50:39;;;;;;;;;;;7.80;99.90;;;;;;5074588;28;20048;-72
2021/12/12 12:53:19;;;;;;;16.80;5.55;;;7.70;99.90;;;;;;5073015;28;20356;-72
2021/12/12 12:56:15;;;;;;;16.77;5.88;;;7.80;99.90;;;;;;5074365;28;20037;-73
2021/12/12 12:59:23;;;;;;;24.20;9.93;;;7.90;99.90;;;;;;5075846;28;20039;-72
2021/12/12 13:02:05;;;;;;;14.38;5.93;;;7.70;99.90;;;;;;5057597;28;20403;-72
2021/12/12 13:04:39;;;;;;;11.25;5.00;;;7.50;99.90;;;;;;5082955;28;20040;-71
2021/12/12 13:07:27;;;;;;;14.38;4.88;;;7.40;99.90;;;;;;5088352;28;20040;-71
2021/12/12 13:10:08;;;;;;;8.18;3.00;;;7.40;99.90;;;;;;5068048;28;20098;-72
2021/12/12 13:13:08;;;;;;;12.13;4.25;;;7.40;99.90;;;;;;5081639;28;20055;-72
2021/12/12 13:16:07;;;;;;;11.80;3.22;;;7.30;99.90;;;;;;5080843;28;20087;-72
2021/12/12 13:18:54;;;;;;;15.55;6.00;;;7.30;99.90;;;;;;5073536;28;20535;-72
2021/12/12 13:21:38;;;;;;;15.02;6.78;;;7.50;99.90;;;;;;5072981;28;20062;-73
2021/12/12 13:24:18;;;;;;;13.35;5.15;;;7.70;99.90;;;;;;5070602;28;20043;-74
2021/12/12 13:26:57;;;;;;;43.63;21.13;;;7.60;99.90;;;;;;5073374;28;20136;-73
2021/12/12 13:29:43;;;;;;;42.13;21.40;;;7.60;99.90;;;;;;5089357;28;20086;-73
2021/12/12 13:32:36;;;;;;;34.45;16.60;;;7.70;99.90;;;;;;5074594;28;20079;-72
2021/12/12 13:35:10;;;;;;;44.38;22.60;;;7.70;99.90;;;;;;5092859;28;20105;-73
2021/12/12 13:38:00;;;;;;;36.08;17.45;;;7.70;99.90;;;;;;5093287;28;20038;-73
2021/12/12 13:40:32;;;;;;;43.40;21.63;;;7.70;99.90;;;;;;5095214;28;20044;-73
2021/12/12 13:43:35;;;;;;;27.60;11.48;;;7.70;99.90;;;;;;5092691;28;20324;-75